sensor_id;sensor_type;location;lat;lon;timestamp;temperature;humidity
23755;DHT22;12057;52.042;6.830;2022-11-25T00:04:11;7.50;99.90
23755;DHT22;12057;52.042;6.830;2022-11-25T00:09:13;7.50;99.90
23755;DHT22;12057;52.042;6.830;2022-11-25T00:14:14;7.50;99.90
23755;DHT22;12057;52.042;6.830;2022-11-25T00:19:16;7.50;99.90
23755;DHT22;12057;52.042;6.830;2022-11-25T00:24:16;7.60;99.90
23755;DHT22;12057;52.042;6.830;2022-11-25T00:29:17;7.70;99.90
23755;DHT22;12057;52.042;6.830;2022-11-25T00:34:18;7.70;99.90
23755;DHT22;12057;52.042;6.830;2022-11-25T00:39:19;7.80;99.90
23755;DHT22;12057;52.042;6.830;2022-11-25T00:44:24;7.90;99.90
23755;DHT22;12057;52.042;6.830;2022-11-25T00:49:39;8.00;99.90
23755;DHT22;12057;52.042;6.830;2022-11-25T00:54:40;8.10;99.90
23755;DHT22;12057;52.042;6.830;2022-11-25T00:59:41;8.20;99.90
23755;DHT22;12057;52.042;6.830;2022-11-25T01:04:41;8.20;99.90
23755;DHT22;12057;52.042;6.830;2022-11-25T01:09:42;8.30;99.90
23755;DHT22;12057;52.042;6.830;2022-11-25T01:14:43;8.30;99.90
23755;DHT22;12057;52.042;6.830;2022-11-25T01:19:43;8.30;99.90
23755;DHT22;12057;52.042;6.830;2022-11-25T01:24:44;8.40;99.90
23755;DHT22;12057;52.042;6.830;2022-11-25T01:29:45;8.30;99.90
23755;DHT22;12057;52.042;6.830;2022-11-25T01:34:46;8.40;99.90
23755;DHT22;12057;52.042;6.830;2022-11-25T01:39:46;8.40;99.90
23755;DHT22;12057;52.042;6.830;2022-11-25T01:50:23;8.40;99.90
23755;DHT22;12057;52.042;6.830;2022-11-25T01:55:29;8.50;99.90
23755;DHT22;12057;52.042;6.830;2022-11-25T02:00:33;8.50;99.90
23755;DHT22;12057;52.042;6.830;2022-11-25T02:06:14;8.50;99.90
23755;DHT22;12057;52.042;6.830;2022-11-25T02:11:16;8.50;99.90
23755;DHT22;12057;52.042;6.830;2022-11-25T02:16:18;8.50;99.90
23755;DHT22;12057;52.042;6.830;2022-11-25T02:21:24;8.50;99.90
23755;DHT22;12057;52.042;6.830;2022-11-25T02:26:27;8.50;99.90
23755;DHT22;12057;52.042;6.830;2022-11-25T02:31:28;8.50;99.90
23755;DHT22;12057;52.042;6.830;2022-11-25T02:36:33;8.50;99.90
23755;DHT22;12057;52.042;6.830;2022-11-25T02:41:38;8.50;99.90
23755;DHT22;12057;52.042;6.830;2022-11-25T02:46:40;8.50;99.90
23755;DHT22;12057;52.042;6.830;2022-11-25T02:51:43;8.50;99.90
23755;DHT22;12057;52.042;6.830;2022-11-25T02:56:44;8.50;99.90
23755;DHT22;12057;52.042;6.830;2022-11-25T03:01:45;8.50;99.90
23755;DHT22;12057;52.042;6.830;2022-11-25T03:06:46;8.50;99.90
23755;DHT22;12057;52.042;6.830;2022-11-25T03:11:47;8.50;99.90
23755;DHT22;12057;52.042;6.830;2022-11-25T03:17:06;8.50;99.90
23755;DHT22;12057;52.042;6.830;2022-11-25T03:22:07;8.50;99.90
23755;DHT22;12057;52.042;6.830;2022-11-25T03:27:07;8.60;99.90
23755;DHT22;12057;52.042;6.830;2022-11-25T03:32:08;8.60;99.90
23755;DHT22;12057;52.042;6.830;2022-11-25T03:37:09;8.60;99.90
23755;DHT22;12057;52.042;6.830;2022-11-25T03:42:10;8.60;99.90
23755;DHT22;12057;52.042;6.830;2022-11-25T03:47:11;8.60;99.90
23755;DHT22;12057;52.042;6.830;2022-11-25T03:52:12;8.60;99.90
23755;DHT22;12057;52.042;6.830;2022-11-25T03:57:12;8.60;99.90
23755;DHT22;12057;52.042;6.830;2022-11-25T04:02:13;8.60;99.90
23755;DHT22;12057;52.042;6.830;2022-11-25T04:07:14;8.60;99.90
23755;DHT22;12057;52.042;6.830;2022-11-25T04:12:15;8.60;99.90
23755;DHT22;12057;52.042;6.830;2022-11-25T04:17:34;8.70;99.90
23755;DHT22;12057;52.042;6.830;2022-11-25T04:22:35;8.70;99.90
23755;DHT22;12057;52.042;6.830;2022-11-25T04:27:36;8.60;99.90
23755;DHT22;12057;52.042;6.830;2022-11-25T04:32:40;8.70;99.90
23755;DHT22;12057;52.042;6.830;2022-11-25T04:37:40;8.70;99.90
23755;DHT22;12057;52.042;6.830;2022-11-25T04:42:41;8.70;99.90
23755;DHT22;12057;52.042;6.830;2022-11-25T04:47:43;8.80;99.90
23755;DHT22;12057;52.042;6.830;2022-11-25T04:52:44;8.80;99.90
23755;DHT22;12057;52.042;6.830;2022-11-25T04:57:48;8.80;99.90
23755;DHT22;12057;52.042;6.830;2022-11-25T05:02:49;8.80;99.90
23755;DHT22;12057;52.042;6.830;2022-11-25T05:07:49;8.80;99.90
23755;DHT22;12057;52.042;6.830;2022-11-25T05:12:50;8.80;99.90
23755;DHT22;12057;52.042;6.830;2022-11-25T05:17:51;8.80;99.90
23755;DHT22;12057;52.042;6.830;2022-11-25T05:22:52;8.90;99.90
23755;DHT22;12057;52.042;6.830;2022-11-25T05:27:52;8.90;99.90
23755;DHT22;12057;52.042;6.830;2022-11-25T05:32:53;8.90;99.90
23755;DHT22;12057;52.042;6.830;2022-11-25T05:37:54;8.90;99.90
23755;DHT22;12057;52.042;6.830;2022-11-25T05:42:55;8.90;99.90
23755;DHT22;12057;52.042;6.830;2022-11-25T05:47:56;8.80;99.90
23755;DHT22;12057;52.042;6.830;2022-11-25T05:52:56;8.80;99.90
23755;DHT22;12057;52.042;6.830;2022-11-25T05:57:58;8.80;99.90
23755;DHT22;12057;52.042;6.830;2022-11-25T06:03:02;8.80;99.90
23755;DHT22;12057;52.042;6.830;2022-11-25T06:08:03;8.80;99.90
23755;DHT22;12057;52.042;6.830;2022-11-25T06:13:03;8.80;99.90
23755;DHT22;12057;52.042;6.830;2022-11-25T06:18:04;8.80;99.90
23755;DHT22;12057;52.042;6.830;2022-11-25T06:23:05;8.80;99.90
23755;DHT22;12057;52.042;6.830;2022-11-25T06:28:06;8.80;99.90
23755;DHT22;12057;52.042;6.830;2022-11-25T06:33:07;8.80;99.90
23755;DHT22;12057;52.042;6.830;2022-11-25T06:38:08;8.90;99.90
23755;DHT22;12057;52.042;6.830;2022-11-25T06:43:09;8.90;99.90
23755;DHT22;12057;52.042;6.830;2022-11-25T06:48:10;8.90;99.90
23755;DHT22;12057;52.042;6.830;2022-11-25T06:53:10;8.90;99.90
23755;DHT22;12057;52.042;6.830;2022-11-25T06:58:11;8.80;99.90
23755;DHT22;12057;52.042;6.830;2022-11-25T07:03:12;8.80;99.90
23755;DHT22;12057;52.042;6.830;2022-11-25T07:08:16;8.80;99.90
23755;DHT22;12057;52.042;6.830;2022-11-25T07:13:16;8.80;99.90
23755;DHT22;12057;52.042;6.830;2022-11-25T07:18:17;8.80;99.90
23755;DHT22;12057;52.042;6.830;2022-11-25T07:23:21;8.80;99.90
23755;DHT22;12057;52.042;6.830;2022-11-25T07:28:22;8.80;99.90
23755;DHT22;12057;52.042;6.830;2022-11-25T07:33:22;8.80;99.90
23755;DHT22;12057;52.042;6.830;2022-11-25T07:38:23;8.80;99.90
23755;DHT22;12057;52.042;6.830;2022-11-25T07:43:24;8.90;99.90
23755;DHT22;12057;52.042;6.830;2022-11-25T07:48:25;8.90;99.90
23755;DHT22;12057;52.042;6.830;2022-11-25T07:53:25;8.90;99.90
23755;DHT22;12057;52.042;6.830;2022-11-25T07:58:26;8.90;99.90
23755;DHT22;12057;52.042;6.830;2022-11-25T08:03:34;8.90;99.90
23755;DHT22;12057;52.042;6.830;2022-11-25T08:08:40;9.00;99.90
23755;DHT22;12057;52.042;6.830;2022-11-25T08:13:41;9.00;99.90
23755;DHT22;12057;52.042;6.830;2022-11-25T08:18:42;9.00;99.90
23755;DHT22;12057;52.042;6.830;2022-11-25T08:23:44;9.00;99.90
23755;DHT22;12057;52.042;6.830;2022-11-25T08:28:48;9.00;99.90
23755;DHT22;12057;52.042;6.830;2022-11-25T08:33:49;9.10;99.90
23755;DHT22;12057;52.042;6.830;2022-11-25T08:38:52;9.20;99.90
23755;DHT22;12057;52.042;6.830;2022-11-25T08:43:54;9.30;99.90
23755;DHT22;12057;52.042;6.830;2022-11-25T08:48:55;9.40;99.90
23755;DHT22;12057;52.042;6.830;2022-11-25T08:53:56;9.50;99.90
23755;DHT22;12057;52.042;6.830;2022-11-25T08:58:57;9.60;99.90
23755;DHT22;12057;52.042;6.830;2022-11-25T09:04:00;9.70;99.90
23755;DHT22;12057;52.042;6.830;2022-11-25T09:09:00;9.90;99.90
23755;DHT22;12057;52.042;6.830;2022-11-25T09:14:01;10.00;99.90
23755;DHT22;12057;52.042;6.830;2022-11-25T09:19:02;10.00;99.90
23755;DHT22;12057;52.042;6.830;2022-11-25T09:24:03;10.10;99.90
23755;DHT22;12057;52.042;6.830;2022-11-25T09:29:04;10.20;99.90
23755;DHT22;12057;52.042;6.830;2022-11-25T09:34:05;10.30;99.90
23755;DHT22;12057;52.042;6.830;2022-11-25T09:39:07;10.50;99.90
23755;DHT22;12057;52.042;6.830;2022-11-25T09:55:16;10.70;99.90
23755;DHT22;12057;52.042;6.830;2022-11-25T10:00:19;10.80;99.90
23755;DHT22;12057;52.042;6.830;2022-11-25T10:05:26;10.90;99.90
23755;DHT22;12057;52.042;6.830;2022-11-25T10:10:44;11.00;99.90
23755;DHT22;12057;52.042;6.830;2022-11-25T10:15:48;11.20;99.90
23755;DHT22;12057;52.042;6.830;2022-11-25T10:20:50;11.00;99.90
23755;DHT22;12057;52.042;6.830;2022-11-25T10:25:56;11.10;99.90
23755;DHT22;12057;52.042;6.830;2022-11-25T10:36:25;11.20;99.90
23755;DHT22;12057;52.042;6.830;2022-11-25T10:41:31;11.20;99.90
23755;DHT22;12057;52.042;6.830;2022-11-25T10:46:43;11.50;99.90
23755;DHT22;12057;52.042;6.830;2022-11-25T10:51:48;11.60;99.90
23755;DHT22;12057;52.042;6.830;2022-11-25T10:56:55;11.80;99.90
23755;DHT22;12057;52.042;6.830;2022-11-25T11:02:20;11.90;99.90
23755;DHT22;12057;52.042;6.830;2022-11-25T11:07:24;12.10;99.90
23755;DHT22;12057;52.042;6.830;2022-11-25T11:12:28;12.10;99.90
23755;DHT22;12057;52.042;6.830;2022-11-25T11:17:34;12.20;99.90
23755;DHT22;12057;52.042;6.830;2022-11-25T11:22:36;12.30;99.90
23755;DHT22;12057;52.042;6.830;2022-11-25T11:27:44;12.30;99.90
23755;DHT22;12057;52.042;6.830;2022-11-25T11:33:00;12.40;99.90
23755;DHT22;12057;52.042;6.830;2022-11-25T11:43:38;12.50;99.90
23755;DHT22;12057;52.042;6.830;2022-11-25T11:54:30;12.80;99.90
23755;DHT22;12057;52.042;6.830;2022-11-25T12:20:30;13.00;99.90
23755;DHT22;12057;52.042;6.830;2022-11-25T12:25:37;13.00;99.90
23755;DHT22;12057;52.042;6.830;2022-11-25T12:31:13;13.10;99.90
23755;DHT22;12057;52.042;6.830;2022-11-25T12:36:20;13.30;99.90
23755;DHT22;12057;52.042;6.830;2022-11-25T12:41:35;13.60;99.90
23755;DHT22;12057;52.042;6.830;2022-11-25T12:46:38;13.80;99.90
23755;DHT22;12057;52.042;6.830;2022-11-25T13:07:44;12.60;99.90
23755;DHT22;12057;52.042;6.830;2022-11-25T13:13:00;12.30;99.90
23755;DHT22;12057;52.042;6.830;2022-11-25T13:18:11;12.10;99.90
23755;DHT22;12057;52.042;6.830;2022-11-25T13:28:33;11.90;99.90
23755;DHT22;12057;52.042;6.830;2022-11-25T13:43:58;11.80;99.90
23755;DHT22;12057;52.042;6.830;2022-11-25T13:49:00;11.80;99.90
23755;DHT22;12057;52.042;6.830;2022-11-25T13:54:04;11.80;99.90
23755;DHT22;12057;52.042;6.830;2022-11-25T14:04:14;11.90;99.90
23755;DHT22;12057;52.042;6.830;2022-11-25T14:10:20;11.90;99.90
23755;DHT22;12057;52.042;6.830;2022-11-25T14:20:49;12.00;99.90
23755;DHT22;12057;52.042;6.830;2022-11-25T14:25:55;12.00;99.90
23755;DHT22;12057;52.042;6.830;2022-11-25T14:30:59;12.00;99.90
23755;DHT22;12057;52.042;6.830;2022-11-25T14:36:09;11.90;99.90
23755;DHT22;12057;52.042;6.830;2022-11-25T14:42:07;11.80;99.90
23755;DHT22;12057;52.042;6.830;2022-11-25T14:46:53;11.70;99.90
23755;DHT22;12057;52.042;6.830;2022-11-25T14:51:54;11.60;99.90
23755;DHT22;12057;52.042;6.830;2022-11-25T14:56:55;11.60;99.90
23755;DHT22;12057;52.042;6.830;2022-11-25T15:01:56;11.50;99.90
23755;DHT22;12057;52.042;6.830;2022-11-25T15:06:57;11.50;99.90
23755;DHT22;12057;52.042;6.830;2022-11-25T15:12:03;11.40;99.90
23755;DHT22;12057;52.042;6.830;2022-11-25T15:17:16;11.40;99.90
23755;DHT22;12057;52.042;6.830;2022-11-25T15:22:20;11.30;99.90
23755;DHT22;12057;52.042;6.830;2022-11-25T15:27:27;11.10;99.90
23755;DHT22;12057;52.042;6.830;2022-11-25T15:32:31;11.10;99.90
23755;DHT22;12057;52.042;6.830;2022-11-25T15:37:32;11.10;99.90
23755;DHT22;12057;52.042;6.830;2022-11-25T15:42:33;11.10;99.90
23755;DHT22;12057;52.042;6.830;2022-11-25T15:47:34;11.00;99.90
23755;DHT22;12057;52.042;6.830;2022-11-25T15:52:37;10.90;99.90
23755;DHT22;12057;52.042;6.830;2022-11-25T15:57:40;10.80;99.90
23755;DHT22;12057;52.042;6.830;2022-11-25T16:13:14;10.50;99.90
23755;DHT22;12057;52.042;6.830;2022-11-25T16:18:16;10.50;99.90
23755;DHT22;12057;52.042;6.830;2022-11-25T16:23:19;10.40;99.90
23755;DHT22;12057;52.042;6.830;2022-11-25T16:28:22;10.30;99.90
23755;DHT22;12057;52.042;6.830;2022-11-25T16:33:23;10.30;99.90
23755;DHT22;12057;52.042;6.830;2022-11-25T16:38:27;10.30;99.90
23755;DHT22;12057;52.042;6.830;2022-11-25T16:43:28;10.30;99.90
23755;DHT22;12057;52.042;6.830;2022-11-25T16:48:28;10.20;99.90
23755;DHT22;12057;52.042;6.830;2022-11-25T16:53:29;10.00;99.90
23755;DHT22;12057;52.042;6.830;2022-11-25T16:58:30;9.90;99.90
23755;DHT22;12057;52.042;6.830;2022-11-25T17:03:30;9.80;99.90
23755;DHT22;12057;52.042;6.830;2022-11-25T17:08:31;9.70;99.90
23755;DHT22;12057;52.042;6.830;2022-11-25T17:13:37;9.70;99.90
23755;DHT22;12057;52.042;6.830;2022-11-25T17:18:41;9.60;99.90
23755;DHT22;12057;52.042;6.830;2022-11-25T17:23:43;9.60;99.90
23755;DHT22;12057;52.042;6.830;2022-11-25T17:28:54;9.60;99.90
23755;DHT22;12057;52.042;6.830;2022-11-25T17:33:56;9.60;99.90
23755;DHT22;12057;52.042;6.830;2022-11-25T17:38:57;9.60;99.90
23755;DHT22;12057;52.042;6.830;2022-11-25T17:43:58;9.40;99.90
23755;DHT22;12057;52.042;6.830;2022-11-25T17:48:58;9.30;99.90
23755;DHT22;12057;52.042;6.830;2022-11-25T17:53:59;9.30;99.90
23755;DHT22;12057;52.042;6.830;2022-11-25T17:59:09;9.20;99.90
23755;DHT22;12057;52.042;6.830;2022-11-25T18:04:17;9.00;99.90
23755;DHT22;12057;52.042;6.830;2022-11-25T18:09:19;8.90;99.90
23755;DHT22;12057;52.042;6.830;2022-11-25T18:14:22;8.80;99.90
23755;DHT22;12057;52.042;6.830;2022-11-25T18:19:24;8.80;99.90
23755;DHT22;12057;52.042;6.830;2022-11-25T18:24:25;8.70;99.90
23755;DHT22;12057;52.042;6.830;2022-11-25T18:29:26;8.70;99.90
23755;DHT22;12057;52.042;6.830;2022-11-25T18:34:27;8.60;99.90
23755;DHT22;12057;52.042;6.830;2022-11-25T18:39:28;8.50;99.90
23755;DHT22;12057;52.042;6.830;2022-11-25T18:44:29;8.40;99.90
23755;DHT22;12057;52.042;6.830;2022-11-25T18:49:30;8.30;99.90
23755;DHT22;12057;52.042;6.830;2022-11-25T18:54:31;8.30;99.90
23755;DHT22;12057;52.042;6.830;2022-11-25T18:59:33;8.20;99.90
23755;DHT22;12057;52.042;6.830;2022-11-25T19:04:34;8.20;99.90
23755;DHT22;12057;52.042;6.830;2022-11-25T19:09:35;8.10;99.90
23755;DHT22;12057;52.042;6.830;2022-11-25T21:05:56;7.00;99.90
23755;DHT22;12057;52.042;6.830;2022-11-25T21:10:58;6.80;99.90
23755;DHT22;12057;52.042;6.830;2022-11-25T21:15:58;6.80;99.90
23755;DHT22;12057;52.042;6.830;2022-11-25T21:20:59;6.70;99.90
23755;DHT22;12057;52.042;6.830;2022-11-25T21:26:20;6.70;99.90
23755;DHT22;12057;52.042;6.830;2022-11-25T21:31:23;6.70;99.90
23755;DHT22;12057;52.042;6.830;2022-11-25T21:36:27;6.60;99.90
23755;DHT22;12057;52.042;6.830;2022-11-25T21:41:28;6.50;99.90
23755;DHT22;12057;52.042;6.830;2022-11-25T21:46:29;6.50;99.90
23755;DHT22;12057;52.042;6.830;2022-11-25T21:51:30;6.40;99.90
23755;DHT22;12057;52.042;6.830;2022-11-25T21:56:33;6.50;99.90
23755;DHT22;12057;52.042;6.830;2022-11-25T22:01:34;6.50;99.90
23755;DHT22;12057;52.042;6.830;2022-11-25T22:06:35;6.50;99.90
23755;DHT22;12057;52.042;6.830;2022-11-25T22:11:38;6.50;99.90
23755;DHT22;12057;52.042;6.830;2022-11-25T22:16:39;6.50;99.90
23755;DHT22;12057;52.042;6.830;2022-11-25T22:21:40;6.50;99.90
23755;DHT22;12057;52.042;6.830;2022-11-25T22:26:41;6.50;99.90
23755;DHT22;12057;52.042;6.830;2022-11-25T22:31:44;6.40;99.90
23755;DHT22;12057;52.042;6.830;2022-11-25T22:36:45;6.40;99.90
23755;DHT22;12057;52.042;6.830;2022-11-25T22:42:02;6.30;99.90
23755;DHT22;12057;52.042;6.830;2022-11-25T22:47:05;6.20;99.90
23755;DHT22;12057;52.042;6.830;2022-11-25T22:57:19;6.00;99.90
23755;DHT22;12057;52.042;6.830;2022-11-25T23:02:27;6.00;99.90
23755;DHT22;12057;52.042;6.830;2022-11-25T23:07:29;5.90;99.90
23755;DHT22;12057;52.042;6.830;2022-11-25T23:12:30;5.90;99.90
23755;DHT22;12057;52.042;6.830;2022-11-25T23:17:30;5.90;99.90
23755;DHT22;12057;52.042;6.830;2022-11-25T23:22:31;6.00;99.90
23755;DHT22;12057;52.042;6.830;2022-11-25T23:27:32;6.00;99.90
23755;DHT22;12057;52.042;6.830;2022-11-25T23:32:33;6.10;99.90
23755;DHT22;12057;52.042;6.830;2022-11-25T23:37:33;6.10;99.90
23755;DHT22;12057;52.042;6.830;2022-11-25T23:42:34;6.00;99.90
23755;DHT22;12057;52.042;6.830;2022-11-25T23:47:35;6.00;99.90
23755;DHT22;12057;52.042;6.830;2022-11-25T23:52:36;6.00;99.90
23755;DHT22;12057;52.042;6.830;2022-11-25T23:57:36;6.00;99.90
